sensor_id;sensor_type;location;lat;lon;timestamp;P1;durP1;ratioP1;P2;durP2;ratioP2
62997;SDS011;55949;52.590;7.330;2023-05-29T00:00:23;16.75;;;3.00;;
62997;SDS011;55949;52.590;7.330;2023-05-29T00:01:24;13.63;;;2.60;;
62997;SDS011;55949;52.590;7.330;2023-05-29T00:02:24;13.25;;;2.58;;
62997;SDS011;55949;52.590;7.330;2023-05-29T00:03:25;20.00;;;2.97;;
62997;SDS011;55949;52.590;7.330;2023-05-29T00:04:26;10.20;;;2.53;;
62997;SDS011;55949;52.590;7.330;2023-05-29T00:05:27;20.13;;;3.42;;
62997;SDS011;55949;52.590;7.330;2023-05-29T00:06:27;17.48;;;2.63;;
62997;SDS011;55949;52.590;7.330;2023-05-29T00:07:29;15.38;;;3.03;;
62997;SDS011;55949;52.590;7.330;2023-05-29T00:08:30;18.50;;;3.17;;
62997;SDS011;55949;52.590;7.330;2023-05-29T00:09:31;17.13;;;2.70;;
62997;SDS011;55949;52.590;7.330;2023-05-29T00:10:31;16.38;;;2.53;;
62997;SDS011;55949;52.590;7.330;2023-05-29T00:11:32;15.98;;;2.95;;
62997;SDS011;55949;52.590;7.330;2023-05-29T00:12:33;13.35;;;2.45;;
62997;SDS011;55949;52.590;7.330;2023-05-29T00:13:35;12.18;;;2.38;;
62997;SDS011;55949;52.590;7.330;2023-05-29T00:14:35;15.48;;;3.00;;
62997;SDS011;55949;52.590;7.330;2023-05-29T00:15:36;17.92;;;2.85;;
62997;SDS011;55949;52.590;7.330;2023-05-29T00:16:37;19.20;;;3.45;;
62997;SDS011;55949;52.590;7.330;2023-05-29T00:17:38;17.02;;;2.58;;
62997;SDS011;55949;52.590;7.330;2023-05-29T00:18:40;17.58;;;1.98;;
62997;SDS011;55949;52.590;7.330;2023-05-29T00:19:45;9.38;;;1.77;;
62997;SDS011;55949;52.590;7.330;2023-05-29T00:20:45;12.77;;;2.47;;
62997;SDS011;55949;52.590;7.330;2023-05-29T00:21:46;10.68;;;2.40;;
62997;SDS011;55949;52.590;7.330;2023-05-29T00:22:47;15.30;;;3.22;;
62997;SDS011;55949;52.590;7.330;2023-05-29T00:23:49;17.27;;;2.70;;
62997;SDS011;55949;52.590;7.330;2023-05-29T00:24:49;18.02;;;2.75;;
62997;SDS011;55949;52.590;7.330;2023-05-29T00:25:50;15.65;;;2.80;;
62997;SDS011;55949;52.590;7.330;2023-05-29T00:26:51;16.90;;;2.72;;
62997;SDS011;55949;52.590;7.330;2023-05-29T00:27:51;16.58;;;2.55;;
62997;SDS011;55949;52.590;7.330;2023-05-29T00:28:52;18.00;;;2.75;;
62997;SDS011;55949;52.590;7.330;2023-05-29T00:29:53;12.68;;;2.65;;
62997;SDS011;55949;52.590;7.330;2023-05-29T00:30:53;11.77;;;2.40;;
62997;SDS011;55949;52.590;7.330;2023-05-29T00:31:54;16.95;;;2.45;;
62997;SDS011;55949;52.590;7.330;2023-05-29T00:32:55;18.98;;;2.15;;
62997;SDS011;55949;52.590;7.330;2023-05-29T00:33:56;15.07;;;2.92;;
62997;SDS011;55949;52.590;7.330;2023-05-29T00:34:57;17.13;;;2.63;;
62997;SDS011;55949;52.590;7.330;2023-05-29T00:35:57;15.20;;;2.65;;
62997;SDS011;55949;52.590;7.330;2023-05-29T00:36:58;17.15;;;3.95;;
62997;SDS011;55949;52.590;7.330;2023-05-29T00:37:59;15.88;;;2.85;;
62997;SDS011;55949;52.590;7.330;2023-05-29T00:39:00;15.82;;;2.58;;
62997;SDS011;55949;52.590;7.330;2023-05-29T00:40:00;20.00;;;4.10;;
62997;SDS011;55949;52.590;7.330;2023-05-29T00:41:01;19.23;;;2.95;;
62997;SDS011;55949;52.590;7.330;2023-05-29T00:42:02;22.25;;;3.58;;
62997;SDS011;55949;52.590;7.330;2023-05-29T00:43:03;13.05;;;3.05;;
62997;SDS011;55949;52.590;7.330;2023-05-29T00:44:04;17.90;;;3.47;;
62997;SDS011;55949;52.590;7.330;2023-05-29T00:45:05;15.57;;;3.60;;
62997;SDS011;55949;52.590;7.330;2023-05-29T00:46:07;17.98;;;3.33;;
62997;SDS011;55949;52.590;7.330;2023-05-29T00:47:09;20.75;;;3.17;;
62997;SDS011;55949;52.590;7.330;2023-05-29T00:48:10;16.38;;;3.63;;
62997;SDS011;55949;52.590;7.330;2023-05-29T00:49:11;20.35;;;4.43;;
62997;SDS011;55949;52.590;7.330;2023-05-29T00:50:13;20.27;;;4.13;;
62997;SDS011;55949;52.590;7.330;2023-05-29T00:51:14;20.02;;;4.35;;
62997;SDS011;55949;52.590;7.330;2023-05-29T00:52:16;16.35;;;4.13;;
62997;SDS011;55949;52.590;7.330;2023-05-29T00:53:17;24.55;;;4.53;;
62997;SDS011;55949;52.590;7.330;2023-05-29T00:54:20;18.05;;;4.45;;
62997;SDS011;55949;52.590;7.330;2023-05-29T00:55:23;21.75;;;4.65;;
62997;SDS011;55949;52.590;7.330;2023-05-29T00:56:25;14.30;;;3.53;;
62997;SDS011;55949;52.590;7.330;2023-05-29T00:57:26;15.80;;;3.80;;
62997;SDS011;55949;52.590;7.330;2023-05-29T00:58:29;18.77;;;4.50;;
62997;SDS011;55949;52.590;7.330;2023-05-29T00:59:31;12.75;;;3.63;;
62997;SDS011;55949;52.590;7.330;2023-05-29T01:00:33;12.63;;;3.17;;
62997;SDS011;55949;52.590;7.330;2023-05-29T01:01:35;20.08;;;4.00;;
62997;SDS011;55949;52.590;7.330;2023-05-29T01:02:36;13.93;;;3.53;;
62997;SDS011;55949;52.590;7.330;2023-05-29T01:03:39;14.60;;;3.60;;
62997;SDS011;55949;52.590;7.330;2023-05-29T01:04:41;18.80;;;3.83;;
62997;SDS011;55949;52.590;7.330;2023-05-29T01:05:45;15.23;;;4.22;;
62997;SDS011;55949;52.590;7.330;2023-05-29T01:06:46;23.13;;;3.60;;
62997;SDS011;55949;52.590;7.330;2023-05-29T01:07:47;15.63;;;3.38;;
62997;SDS011;55949;52.590;7.330;2023-05-29T01:08:48;17.48;;;3.65;;
62997;SDS011;55949;52.590;7.330;2023-05-29T01:09:49;19.55;;;3.83;;
62997;SDS011;55949;52.590;7.330;2023-05-29T01:10:51;18.80;;;3.40;;
62997;SDS011;55949;52.590;7.330;2023-05-29T01:13:08;21.65;;;3.78;;
62997;SDS011;55949;52.590;7.330;2023-05-29T01:14:19;16.10;;;3.80;;
62997;SDS011;55949;52.590;7.330;2023-05-29T01:15:37;15.68;;;3.22;;
62997;SDS011;55949;52.590;7.330;2023-05-29T01:16:51;12.32;;;3.55;;
62997;SDS011;55949;52.590;7.330;2023-05-29T01:20:46;13.75;;;3.58;;
62997;SDS011;55949;52.590;7.330;2023-05-29T01:27:09;19.92;;;3.20;;
62997;SDS011;55949;52.590;7.330;2023-05-29T01:28:10;16.55;;;3.63;;
62997;SDS011;55949;52.590;7.330;2023-05-29T01:29:13;12.25;;;2.75;;
62997;SDS011;55949;52.590;7.330;2023-05-29T01:30:17;14.30;;;3.35;;
62997;SDS011;55949;52.590;7.330;2023-05-29T01:31:21;15.80;;;3.53;;
62997;SDS011;55949;52.590;7.330;2023-05-29T01:32:25;12.13;;;2.63;;
62997;SDS011;55949;52.590;7.330;2023-05-29T01:33:26;15.68;;;3.53;;
62997;SDS011;55949;52.590;7.330;2023-05-29T01:34:27;11.48;;;2.80;;
62997;SDS011;55949;52.590;7.330;2023-05-29T01:35:29;20.27;;;3.40;;
62997;SDS011;55949;52.590;7.330;2023-05-29T01:36:30;18.40;;;3.45;;
62997;SDS011;55949;52.590;7.330;2023-05-29T01:37:32;11.95;;;2.85;;
62997;SDS011;55949;52.590;7.330;2023-05-29T01:38:33;16.52;;;3.33;;
62997;SDS011;55949;52.590;7.330;2023-05-29T01:39:35;19.13;;;4.13;;
62997;SDS011;55949;52.590;7.330;2023-05-29T01:40:36;12.85;;;3.20;;
62997;SDS011;55949;52.590;7.330;2023-05-29T01:41:37;15.93;;;3.20;;
62997;SDS011;55949;52.590;7.330;2023-05-29T01:42:38;20.13;;;3.72;;
62997;SDS011;55949;52.590;7.330;2023-05-29T01:43:40;14.70;;;3.72;;
62997;SDS011;55949;52.590;7.330;2023-05-29T01:44:41;17.85;;;3.58;;
62997;SDS011;55949;52.590;7.330;2023-05-29T01:45:43;18.73;;;3.15;;
62997;SDS011;55949;52.590;7.330;2023-05-29T01:46:44;13.40;;;2.88;;
62997;SDS011;55949;52.590;7.330;2023-05-29T01:47:45;14.80;;;3.30;;
62997;SDS011;55949;52.590;7.330;2023-05-29T01:48:47;19.35;;;3.90;;
62997;SDS011;55949;52.590;7.330;2023-05-29T01:49:48;17.38;;;3.53;;
62997;SDS011;55949;52.590;7.330;2023-05-29T01:50:51;19.35;;;3.10;;
62997;SDS011;55949;52.590;7.330;2023-05-29T01:51:52;13.23;;;3.05;;
62997;SDS011;55949;52.590;7.330;2023-05-29T01:52:53;18.58;;;3.60;;
62997;SDS011;55949;52.590;7.330;2023-05-29T01:53:54;16.73;;;3.25;;
62997;SDS011;55949;52.590;7.330;2023-05-29T01:54:55;19.75;;;3.17;;
62997;SDS011;55949;52.590;7.330;2023-05-29T01:55:56;13.48;;;3.65;;
62997;SDS011;55949;52.590;7.330;2023-05-29T01:56:56;14.55;;;3.60;;
62997;SDS011;55949;52.590;7.330;2023-05-29T01:57:58;16.50;;;3.17;;
62997;SDS011;55949;52.590;7.330;2023-05-29T01:59:00;16.73;;;3.35;;
62997;SDS011;55949;52.590;7.330;2023-05-29T02:00:03;14.07;;;3.08;;
62997;SDS011;55949;52.590;7.330;2023-05-29T02:01:09;15.73;;;3.65;;
62997;SDS011;55949;52.590;7.330;2023-05-29T02:02:10;14.45;;;3.20;;
62997;SDS011;55949;52.590;7.330;2023-05-29T02:03:12;11.80;;;2.97;;
62997;SDS011;55949;52.590;7.330;2023-05-29T02:04:16;14.23;;;3.45;;
62997;SDS011;55949;52.590;7.330;2023-05-29T02:05:16;13.93;;;2.67;;
62997;SDS011;55949;52.590;7.330;2023-05-29T02:06:17;20.30;;;3.55;;
62997;SDS011;55949;52.590;7.330;2023-05-29T02:07:18;18.30;;;3.30;;
62997;SDS011;55949;52.590;7.330;2023-05-29T02:08:19;16.02;;;3.30;;
62997;SDS011;55949;52.590;7.330;2023-05-29T02:09:20;17.02;;;2.88;;
62997;SDS011;55949;52.590;7.330;2023-05-29T02:10:22;13.93;;;3.47;;
62997;SDS011;55949;52.590;7.330;2023-05-29T02:11:23;18.13;;;3.35;;
62997;SDS011;55949;52.590;7.330;2023-05-29T02:12:23;14.63;;;3.05;;
62997;SDS011;55949;52.590;7.330;2023-05-29T02:13:24;17.27;;;3.65;;
62997;SDS011;55949;52.590;7.330;2023-05-29T02:14:25;16.65;;;3.05;;
62997;SDS011;55949;52.590;7.330;2023-05-29T02:15:25;11.93;;;3.17;;
62997;SDS011;55949;52.590;7.330;2023-05-29T02:16:26;22.17;;;3.63;;
62997;SDS011;55949;52.590;7.330;2023-05-29T02:17:27;18.75;;;4.10;;
62997;SDS011;55949;52.590;7.330;2023-05-29T02:18:28;24.17;;;4.35;;
62997;SDS011;55949;52.590;7.330;2023-05-29T02:19:29;11.50;;;3.33;;
62997;SDS011;55949;52.590;7.330;2023-05-29T02:20:29;14.68;;;2.97;;
62997;SDS011;55949;52.590;7.330;2023-05-29T02:21:30;14.35;;;4.00;;
62997;SDS011;55949;52.590;7.330;2023-05-29T02:22:31;15.82;;;3.50;;
62997;SDS011;55949;52.590;7.330;2023-05-29T02:23:32;20.55;;;3.70;;
62997;SDS011;55949;52.590;7.330;2023-05-29T02:24:32;18.80;;;3.47;;
62997;SDS011;55949;52.590;7.330;2023-05-29T02:25:33;16.05;;;3.63;;
62997;SDS011;55949;52.590;7.330;2023-05-29T02:26:35;16.27;;;3.78;;
62997;SDS011;55949;52.590;7.330;2023-05-29T02:27:39;20.17;;;3.97;;
62997;SDS011;55949;52.590;7.330;2023-05-29T02:28:39;19.83;;;3.70;;
62997;SDS011;55949;52.590;7.330;2023-05-29T02:29:40;15.77;;;3.20;;
62997;SDS011;55949;52.590;7.330;2023-05-29T02:30:41;16.88;;;3.13;;
62997;SDS011;55949;52.590;7.330;2023-05-29T02:31:41;18.27;;;2.88;;
62997;SDS011;55949;52.590;7.330;2023-05-29T02:32:42;22.00;;;3.92;;
62997;SDS011;55949;52.590;7.330;2023-05-29T02:33:43;13.73;;;3.33;;
62997;SDS011;55949;52.590;7.330;2023-05-29T02:34:43;19.15;;;3.38;;
62997;SDS011;55949;52.590;7.330;2023-05-29T02:35:44;11.07;;;3.00;;
62997;SDS011;55949;52.590;7.330;2023-05-29T02:36:45;16.08;;;3.15;;
62997;SDS011;55949;52.590;7.330;2023-05-29T02:37:45;15.88;;;3.10;;
62997;SDS011;55949;52.590;7.330;2023-05-29T02:38:46;16.70;;;3.60;;
62997;SDS011;55949;52.590;7.330;2023-05-29T02:39:47;19.35;;;3.70;;
62997;SDS011;55949;52.590;7.330;2023-05-29T02:40:47;17.10;;;3.85;;
62997;SDS011;55949;52.590;7.330;2023-05-29T02:41:48;11.77;;;2.65;;
62997;SDS011;55949;52.590;7.330;2023-05-29T02:42:49;15.90;;;3.25;;
62997;SDS011;55949;52.590;7.330;2023-05-29T02:43:50;17.27;;;3.80;;
62997;SDS011;55949;52.590;7.330;2023-05-29T02:44:51;21.40;;;3.03;;
62997;SDS011;55949;52.590;7.330;2023-05-29T02:45:51;19.02;;;3.08;;
62997;SDS011;55949;52.590;7.330;2023-05-29T02:46:52;16.08;;;3.08;;
62997;SDS011;55949;52.590;7.330;2023-05-29T02:47:53;21.88;;;4.00;;
62997;SDS011;55949;52.590;7.330;2023-05-29T02:48:54;15.32;;;3.55;;
62997;SDS011;55949;52.590;7.330;2023-05-29T02:49:54;20.38;;;3.47;;
62997;SDS011;55949;52.590;7.330;2023-05-29T02:50:55;10.32;;;2.80;;
62997;SDS011;55949;52.590;7.330;2023-05-29T02:51:55;15.32;;;3.25;;
62997;SDS011;55949;52.590;7.330;2023-05-29T02:52:56;18.10;;;3.33;;
62997;SDS011;55949;52.590;7.330;2023-05-29T02:53:57;14.00;;;2.92;;
62997;SDS011;55949;52.590;7.330;2023-05-29T02:54:58;18.38;;;3.15;;
62997;SDS011;55949;52.590;7.330;2023-05-29T02:55:59;13.23;;;2.67;;
62997;SDS011;55949;52.590;7.330;2023-05-29T02:56:59;15.88;;;2.85;;
62997;SDS011;55949;52.590;7.330;2023-05-29T02:58:02;16.40;;;3.15;;
62997;SDS011;55949;52.590;7.330;2023-05-29T02:59:02;17.13;;;3.22;;
62997;SDS011;55949;52.590;7.330;2023-05-29T03:00:03;18.08;;;3.70;;
62997;SDS011;55949;52.590;7.330;2023-05-29T03:01:08;15.15;;;3.05;;
62997;SDS011;55949;52.590;7.330;2023-05-29T03:02:08;18.55;;;3.20;;
62997;SDS011;55949;52.590;7.330;2023-05-29T03:03:09;15.02;;;3.22;;
62997;SDS011;55949;52.590;7.330;2023-05-29T03:04:10;18.17;;;3.13;;
62997;SDS011;55949;52.590;7.330;2023-05-29T03:05:11;17.95;;;3.15;;
62997;SDS011;55949;52.590;7.330;2023-05-29T03:06:11;18.00;;;3.08;;
62997;SDS011;55949;52.590;7.330;2023-05-29T03:07:12;10.20;;;2.78;;
62997;SDS011;55949;52.590;7.330;2023-05-29T03:08:13;14.25;;;2.90;;
62997;SDS011;55949;52.590;7.330;2023-05-29T03:09:14;13.88;;;2.70;;
62997;SDS011;55949;52.590;7.330;2023-05-29T03:10:16;17.58;;;3.42;;
62997;SDS011;55949;52.590;7.330;2023-05-29T03:11:17;12.07;;;2.60;;
62997;SDS011;55949;52.590;7.330;2023-05-29T03:12:17;14.90;;;2.47;;
62997;SDS011;55949;52.590;7.330;2023-05-29T03:13:19;21.40;;;3.75;;
62997;SDS011;55949;52.590;7.330;2023-05-29T03:14:19;17.73;;;3.15;;
62997;SDS011;55949;52.590;7.330;2023-05-29T03:15:21;16.02;;;3.03;;
62997;SDS011;55949;52.590;7.330;2023-05-29T03:16:22;15.30;;;3.13;;
62997;SDS011;55949;52.590;7.330;2023-05-29T03:17:22;14.57;;;2.78;;
62997;SDS011;55949;52.590;7.330;2023-05-29T03:18:23;13.23;;;2.38;;
62997;SDS011;55949;52.590;7.330;2023-05-29T03:19:24;20.50;;;3.33;;
62997;SDS011;55949;52.590;7.330;2023-05-29T03:20:25;13.35;;;2.90;;
62997;SDS011;55949;52.590;7.330;2023-05-29T03:21:26;21.40;;;2.78;;
62997;SDS011;55949;52.590;7.330;2023-05-29T03:22:26;12.27;;;2.60;;
62997;SDS011;55949;52.590;7.330;2023-05-29T03:23:27;13.05;;;2.50;;
62997;SDS011;55949;52.590;7.330;2023-05-29T03:24:28;20.55;;;3.33;;
62997;SDS011;55949;52.590;7.330;2023-05-29T03:25:28;15.20;;;3.20;;
62997;SDS011;55949;52.590;7.330;2023-05-29T03:26:29;16.48;;;3.00;;
62997;SDS011;55949;52.590;7.330;2023-05-29T03:27:30;15.90;;;2.42;;
62997;SDS011;55949;52.590;7.330;2023-05-29T03:28:31;18.48;;;2.30;;
62997;SDS011;55949;52.590;7.330;2023-05-29T03:29:32;10.90;;;2.30;;
62997;SDS011;55949;52.590;7.330;2023-05-29T03:30:32;13.13;;;2.25;;
62997;SDS011;55949;52.590;7.330;2023-05-29T03:31:33;19.52;;;3.25;;
62997;SDS011;55949;52.590;7.330;2023-05-29T03:32:34;14.82;;;3.00;;
62997;SDS011;55949;52.590;7.330;2023-05-29T03:33:35;13.75;;;2.95;;
62997;SDS011;55949;52.590;7.330;2023-05-29T03:34:36;17.15;;;3.30;;
62997;SDS011;55949;52.590;7.330;2023-05-29T03:35:37;12.32;;;2.00;;
62997;SDS011;55949;52.590;7.330;2023-05-29T03:36:37;19.02;;;2.75;;
62997;SDS011;55949;52.590;7.330;2023-05-29T03:37:38;16.63;;;2.88;;
62997;SDS011;55949;52.590;7.330;2023-05-29T03:38:38;13.10;;;2.15;;
62997;SDS011;55949;52.590;7.330;2023-05-29T03:39:39;19.98;;;2.83;;
62997;SDS011;55949;52.590;7.330;2023-05-29T03:40:40;14.48;;;2.60;;
62997;SDS011;55949;52.590;7.330;2023-05-29T03:41:41;16.35;;;2.80;;
62997;SDS011;55949;52.590;7.330;2023-05-29T03:42:41;9.85;;;1.92;;
62997;SDS011;55949;52.590;7.330;2023-05-29T03:43:42;15.60;;;2.63;;
62997;SDS011;55949;52.590;7.330;2023-05-29T03:44:43;15.02;;;2.40;;
62997;SDS011;55949;52.590;7.330;2023-05-29T03:45:43;19.23;;;3.15;;
62997;SDS011;55949;52.590;7.330;2023-05-29T03:46:44;13.48;;;2.33;;
62997;SDS011;55949;52.590;7.330;2023-05-29T03:47:45;10.98;;;2.45;;
62997;SDS011;55949;52.590;7.330;2023-05-29T03:48:45;14.52;;;2.60;;
62997;SDS011;55949;52.590;7.330;2023-05-29T03:49:46;9.35;;;2.20;;
62997;SDS011;55949;52.590;7.330;2023-05-29T03:50:47;12.43;;;2.20;;
62997;SDS011;55949;52.590;7.330;2023-05-29T03:51:48;24.85;;;2.65;;
62997;SDS011;55949;52.590;7.330;2023-05-29T03:52:49;21.27;;;3.45;;
62997;SDS011;55949;52.590;7.330;2023-05-29T03:53:50;11.18;;;2.63;;
62997;SDS011;55949;52.590;7.330;2023-05-29T03:54:51;9.90;;;2.00;;
62997;SDS011;55949;52.590;7.330;2023-05-29T03:55:51;17.30;;;3.30;;
62997;SDS011;55949;52.590;7.330;2023-05-29T03:56:52;10.27;;;2.17;;
62997;SDS011;55949;52.590;7.330;2023-05-29T03:57:52;10.05;;;2.13;;
62997;SDS011;55949;52.590;7.330;2023-05-29T03:58:53;11.32;;;2.08;;
62997;SDS011;55949;52.590;7.330;2023-05-29T03:59:54;15.35;;;2.88;;
62997;SDS011;55949;52.590;7.330;2023-05-29T04:00:55;19.13;;;2.47;;
62997;SDS011;55949;52.590;7.330;2023-05-29T04:01:56;11.25;;;1.90;;
62997;SDS011;55949;52.590;7.330;2023-05-29T04:02:56;14.32;;;2.35;;
62997;SDS011;55949;52.590;7.330;2023-05-29T04:03:57;17.88;;;2.63;;
62997;SDS011;55949;52.590;7.330;2023-05-29T04:04:58;12.90;;;2.22;;
62997;SDS011;55949;52.590;7.330;2023-05-29T04:05:58;17.58;;;2.33;;
62997;SDS011;55949;52.590;7.330;2023-05-29T04:06:59;13.85;;;2.67;;
62997;SDS011;55949;52.590;7.330;2023-05-29T04:08:00;13.50;;;2.40;;
62997;SDS011;55949;52.590;7.330;2023-05-29T04:09:04;14.55;;;2.40;;
62997;SDS011;55949;52.590;7.330;2023-05-29T04:10:06;18.95;;;3.10;;
62997;SDS011;55949;52.590;7.330;2023-05-29T04:11:07;17.55;;;2.60;;
62997;SDS011;55949;52.590;7.330;2023-05-29T04:12:08;14.57;;;2.67;;
62997;SDS011;55949;52.590;7.330;2023-05-29T04:13:09;9.15;;;1.83;;
62997;SDS011;55949;52.590;7.330;2023-05-29T04:14:10;12.02;;;2.00;;
62997;SDS011;55949;52.590;7.330;2023-05-29T04:15:10;13.73;;;2.42;;
62997;SDS011;55949;52.590;7.330;2023-05-29T04:16:11;15.32;;;2.33;;
62997;SDS011;55949;52.590;7.330;2023-05-29T04:17:12;9.48;;;1.95;;
62997;SDS011;55949;52.590;7.330;2023-05-29T04:18:12;15.60;;;2.20;;
62997;SDS011;55949;52.590;7.330;2023-05-29T04:19:13;14.60;;;3.00;;
62997;SDS011;55949;52.590;7.330;2023-05-29T04:20:14;13.40;;;1.98;;
62997;SDS011;55949;52.590;7.330;2023-05-29T04:21:15;11.18;;;2.40;;
62997;SDS011;55949;52.590;7.330;2023-05-29T04:22:16;11.73;;;2.70;;
62997;SDS011;55949;52.590;7.330;2023-05-29T04:23:16;14.98;;;2.28;;
62997;SDS011;55949;52.590;7.330;2023-05-29T04:24:17;21.48;;;2.65;;
62997;SDS011;55949;52.590;7.330;2023-05-29T04:25:18;8.52;;;2.17;;
62997;SDS011;55949;52.590;7.330;2023-05-29T04:26:20;16.90;;;2.42;;
62997;SDS011;55949;52.590;7.330;2023-05-29T04:27:24;10.35;;;2.25;;
62997;SDS011;55949;52.590;7.330;2023-05-29T04:28:25;14.73;;;2.53;;
62997;SDS011;55949;52.590;7.330;2023-05-29T04:29:26;10.60;;;2.20;;
62997;SDS011;55949;52.590;7.330;2023-05-29T04:30:28;14.45;;;2.67;;
62997;SDS011;55949;52.590;7.330;2023-05-29T04:31:28;21.25;;;2.85;;
62997;SDS011;55949;52.590;7.330;2023-05-29T04:32:29;17.95;;;2.63;;
62997;SDS011;55949;52.590;7.330;2023-05-29T04:33:31;11.75;;;2.03;;
62997;SDS011;55949;52.590;7.330;2023-05-29T04:34:33;8.68;;;1.75;;
62997;SDS011;55949;52.590;7.330;2023-05-29T04:35:34;11.10;;;2.03;;
62997;SDS011;55949;52.590;7.330;2023-05-29T04:36:35;13.43;;;2.63;;
62997;SDS011;55949;52.590;7.330;2023-05-29T04:37:39;11.75;;;2.65;;
62997;SDS011;55949;52.590;7.330;2023-05-29T04:38:39;22.60;;;2.53;;
62997;SDS011;55949;52.590;7.330;2023-05-29T04:39:41;15.85;;;2.20;;
62997;SDS011;55949;52.590;7.330;2023-05-29T04:40:42;11.55;;;2.03;;
62997;SDS011;55949;52.590;7.330;2023-05-29T04:41:44;14.45;;;2.90;;
62997;SDS011;55949;52.590;7.330;2023-05-29T04:42:44;16.40;;;2.03;;
62997;SDS011;55949;52.590;7.330;2023-05-29T04:43:45;17.40;;;2.50;;
62997;SDS011;55949;52.590;7.330;2023-05-29T04:44:46;13.38;;;2.25;;
62997;SDS011;55949;52.590;7.330;2023-05-29T04:45:46;15.30;;;2.85;;
62997;SDS011;55949;52.590;7.330;2023-05-29T04:46:48;13.52;;;2.35;;
62997;SDS011;55949;52.590;7.330;2023-05-29T04:47:51;15.00;;;2.20;;
62997;SDS011;55949;52.590;7.330;2023-05-29T04:48:54;13.93;;;2.05;;
62997;SDS011;55949;52.590;7.330;2023-05-29T04:49:55;14.18;;;2.45;;
62997;SDS011;55949;52.590;7.330;2023-05-29T04:50:55;15.85;;;2.47;;
62997;SDS011;55949;52.590;7.330;2023-05-29T04:51:57;10.68;;;2.38;;
62997;SDS011;55949;52.590;7.330;2023-05-29T04:53:00;16.77;;;2.30;;
62997;SDS011;55949;52.590;7.330;2023-05-29T04:54:01;13.77;;;2.60;;
62997;SDS011;55949;52.590;7.330;2023-05-29T04:55:02;14.63;;;3.13;;
62997;SDS011;55949;52.590;7.330;2023-05-29T04:56:03;13.82;;;2.60;;
62997;SDS011;55949;52.590;7.330;2023-05-29T04:57:04;12.48;;;2.60;;
62997;SDS011;55949;52.590;7.330;2023-05-29T04:58:05;13.20;;;2.60;;
62997;SDS011;55949;52.590;7.330;2023-05-29T04:59:06;15.68;;;2.70;;
62997;SDS011;55949;52.590;7.330;2023-05-29T05:00:07;10.50;;;2.60;;
62997;SDS011;55949;52.590;7.330;2023-05-29T05:01:11;16.35;;;2.92;;
62997;SDS011;55949;52.590;7.330;2023-05-29T05:02:14;12.82;;;2.40;;
62997;SDS011;55949;52.590;7.330;2023-05-29T05:03:15;10.98;;;2.65;;
62997;SDS011;55949;52.590;7.330;2023-05-29T05:04:16;13.85;;;2.40;;
62997;SDS011;55949;52.590;7.330;2023-05-29T05:05:17;12.85;;;2.28;;
62997;SDS011;55949;52.590;7.330;2023-05-29T05:06:18;14.57;;;2.67;;
62997;SDS011;55949;52.590;7.330;2023-05-29T05:07:18;13.05;;;2.47;;
62997;SDS011;55949;52.590;7.330;2023-05-29T05:08:19;12.88;;;2.75;;
62997;SDS011;55949;52.590;7.330;2023-05-29T05:09:20;10.20;;;2.08;;
62997;SDS011;55949;52.590;7.330;2023-05-29T05:10:20;16.92;;;3.28;;
62997;SDS011;55949;52.590;7.330;2023-05-29T05:11:22;11.95;;;1.98;;
62997;SDS011;55949;52.590;7.330;2023-05-29T05:12:23;11.75;;;2.00;;
62997;SDS011;55949;52.590;7.330;2023-05-29T05:13:24;8.20;;;2.10;;
62997;SDS011;55949;52.590;7.330;2023-05-29T05:14:24;9.32;;;2.33;;
62997;SDS011;55949;52.590;7.330;2023-05-29T05:15:25;10.77;;;3.00;;
62997;SDS011;55949;52.590;7.330;2023-05-29T05:16:26;14.57;;;2.38;;
62997;SDS011;55949;52.590;7.330;2023-05-29T05:17:27;16.60;;;2.10;;
62997;SDS011;55949;52.590;7.330;2023-05-29T05:18:27;14.55;;;2.17;;
62997;SDS011;55949;52.590;7.330;2023-05-29T05:19:28;9.07;;;2.22;;
62997;SDS011;55949;52.590;7.330;2023-05-29T05:20:29;12.80;;;2.58;;
62997;SDS011;55949;52.590;7.330;2023-05-29T05:21:29;9.23;;;2.20;;
62997;SDS011;55949;52.590;7.330;2023-05-29T05:22:31;16.67;;;2.78;;
62997;SDS011;55949;52.590;7.330;2023-05-29T05:23:32;17.33;;;2.63;;
62997;SDS011;55949;52.590;7.330;2023-05-29T05:24:33;13.20;;;2.58;;
62997;SDS011;55949;52.590;7.330;2023-05-29T05:25:35;10.05;;;2.13;;
62997;SDS011;55949;52.590;7.330;2023-05-29T05:26:35;13.82;;;2.60;;
62997;SDS011;55949;52.590;7.330;2023-05-29T05:27:36;15.70;;;1.92;;
62997;SDS011;55949;52.590;7.330;2023-05-29T05:28:37;7.07;;;1.73;;
62997;SDS011;55949;52.590;7.330;2023-05-29T05:29:37;13.10;;;1.85;;
62997;SDS011;55949;52.590;7.330;2023-05-29T05:30:38;9.95;;;2.17;;
62997;SDS011;55949;52.590;7.330;2023-05-29T05:31:39;16.77;;;2.60;;
62997;SDS011;55949;52.590;7.330;2023-05-29T05:32:39;10.82;;;2.10;;
62997;SDS011;55949;52.590;7.330;2023-05-29T05:33:40;15.93;;;2.42;;
62997;SDS011;55949;52.590;7.330;2023-05-29T05:34:41;12.85;;;2.10;;
62997;SDS011;55949;52.590;7.330;2023-05-29T05:35:42;14.43;;;2.40;;
62997;SDS011;55949;52.590;7.330;2023-05-29T05:36:42;13.00;;;2.40;;
62997;SDS011;55949;52.590;7.330;2023-05-29T05:37:43;13.77;;;2.30;;
62997;SDS011;55949;52.590;7.330;2023-05-29T05:38:44;14.48;;;2.13;;
62997;SDS011;55949;52.590;7.330;2023-05-29T05:39:44;6.78;;;1.75;;
62997;SDS011;55949;52.590;7.330;2023-05-29T05:40:45;16.15;;;3.03;;
62997;SDS011;55949;52.590;7.330;2023-05-29T05:41:46;13.07;;;2.20;;
62997;SDS011;55949;52.590;7.330;2023-05-29T05:42:46;11.75;;;2.30;;
62997;SDS011;55949;52.590;7.330;2023-05-29T05:43:47;11.85;;;2.28;;
62997;SDS011;55949;52.590;7.330;2023-05-29T05:44:48;16.55;;;1.90;;
62997;SDS011;55949;52.590;7.330;2023-05-29T05:45:48;10.32;;;2.00;;
62997;SDS011;55949;52.590;7.330;2023-05-29T05:46:49;15.27;;;2.75;;
62997;SDS011;55949;52.590;7.330;2023-05-29T05:47:50;9.73;;;1.73;;
62997;SDS011;55949;52.590;7.330;2023-05-29T05:48:51;14.00;;;1.90;;
62997;SDS011;55949;52.590;7.330;2023-05-29T05:49:51;8.57;;;1.95;;
62997;SDS011;55949;52.590;7.330;2023-05-29T05:50:52;13.18;;;2.28;;
62997;SDS011;55949;52.590;7.330;2023-05-29T05:51:53;9.30;;;1.80;;
62997;SDS011;55949;52.590;7.330;2023-05-29T05:52:53;14.15;;;1.85;;
62997;SDS011;55949;52.590;7.330;2023-05-29T05:53:54;13.68;;;2.33;;
62997;SDS011;55949;52.590;7.330;2023-05-29T05:54:55;10.40;;;1.85;;
62997;SDS011;55949;52.590;7.330;2023-05-29T05:55:56;9.25;;;2.00;;
62997;SDS011;55949;52.590;7.330;2023-05-29T05:56:56;12.95;;;2.28;;
62997;SDS011;55949;52.590;7.330;2023-05-29T05:57:57;9.93;;;1.75;;
62997;SDS011;55949;52.590;7.330;2023-05-29T05:58:58;13.70;;;2.20;;
62997;SDS011;55949;52.590;7.330;2023-05-29T06:00:02;11.20;;;2.10;;
62997;SDS011;55949;52.590;7.330;2023-05-29T06:01:13;13.23;;;2.60;;
62997;SDS011;55949;52.590;7.330;2023-05-29T06:02:14;15.73;;;1.75;;
62997;SDS011;55949;52.590;7.330;2023-05-29T06:03:15;14.00;;;2.28;;
62997;SDS011;55949;52.590;7.330;2023-05-29T06:04:16;15.45;;;2.08;;
62997;SDS011;55949;52.590;7.330;2023-05-29T06:05:16;9.85;;;2.17;;
62997;SDS011;55949;52.590;7.330;2023-05-29T06:06:17;12.63;;;2.28;;
62997;SDS011;55949;52.590;7.330;2023-05-29T06:07:18;17.10;;;2.55;;
62997;SDS011;55949;52.590;7.330;2023-05-29T06:08:19;16.92;;;2.28;;
62997;SDS011;55949;52.590;7.330;2023-05-29T06:09:19;15.27;;;2.20;;
62997;SDS011;55949;52.590;7.330;2023-05-29T06:10:21;8.02;;;1.85;;
62997;SDS011;55949;52.590;7.330;2023-05-29T06:11:22;16.52;;;2.58;;
62997;SDS011;55949;52.590;7.330;2023-05-29T06:12:23;12.50;;;2.20;;
62997;SDS011;55949;52.590;7.330;2023-05-29T06:13:24;16.92;;;2.22;;